sensor_id;sensor_type;location;lat;lon;timestamp;temperature;humidity
58809;DHT22;44579;51.672;7.834;2024-02-21T00:03:40;9.40;93.30
58809;DHT22;44579;51.672;7.834;2024-02-21T00:06:36;9.40;93.30
58809;DHT22;44579;51.672;7.834;2024-02-21T00:09:39;9.40;93.30
58809;DHT22;44579;51.672;7.834;2024-02-21T00:12:43;9.40;93.30
58809;DHT22;44579;51.672;7.834;2024-02-21T00:15:13;9.40;93.30
58809;DHT22;44579;51.672;7.834;2024-02-21T00:17:51;9.40;93.30
58809;DHT22;44579;51.672;7.834;2024-02-21T00:20:30;9.40;93.30
58809;DHT22;44579;51.672;7.834;2024-02-21T00:23:09;9.50;93.30
58809;DHT22;44579;51.672;7.834;2024-02-21T00:26:36;9.40;93.30
58809;DHT22;44579;51.672;7.834;2024-02-21T00:29:33;9.40;93.30
58809;DHT22;44579;51.672;7.834;2024-02-21T00:35:51;9.50;93.40
58809;DHT22;44579;51.672;7.834;2024-02-21T00:38:43;9.40;93.30
58809;DHT22;44579;51.672;7.834;2024-02-21T00:44:57;9.40;93.30
58809;DHT22;44579;51.672;7.834;2024-02-21T00:50:41;9.40;93.30
58809;DHT22;44579;51.672;7.834;2024-02-21T00:53:46;9.40;93.30
58809;DHT22;44579;51.672;7.834;2024-02-21T00:57:07;9.40;93.30
58809;DHT22;44579;51.672;7.834;2024-02-21T00:59:39;9.40;93.20
58809;DHT22;44579;51.672;7.834;2024-02-21T01:06:20;9.40;93.20
58809;DHT22;44579;51.672;7.834;2024-02-21T01:13:06;9.50;93.20
58809;DHT22;44579;51.672;7.834;2024-02-21T01:18:36;9.40;93.20
58809;DHT22;44579;51.672;7.834;2024-02-21T01:21:57;9.50;93.30
58809;DHT22;44579;51.672;7.834;2024-02-21T01:24:57;9.50;93.20
58809;DHT22;44579;51.672;7.834;2024-02-21T01:27:42;9.50;93.20
58809;DHT22;44579;51.672;7.834;2024-02-21T01:30:22;9.40;93.20
58809;DHT22;44579;51.672;7.834;2024-02-21T01:33:14;9.40;93.20
58809;DHT22;44579;51.672;7.834;2024-02-21T01:36:32;9.40;93.20
58809;DHT22;44579;51.672;7.834;2024-02-21T01:39:21;9.40;93.20
58809;DHT22;44579;51.672;7.834;2024-02-21T01:41:51;9.40;93.20
58809;DHT22;44579;51.672;7.834;2024-02-21T01:44:45;9.40;93.20
58809;DHT22;44579;51.672;7.834;2024-02-21T01:47:30;9.40;93.20
58809;DHT22;44579;51.672;7.834;2024-02-21T01:50:20;9.40;93.20
58809;DHT22;44579;51.672;7.834;2024-02-21T01:53:46;9.40;93.20
58809;DHT22;44579;51.672;7.834;2024-02-21T01:56:29;9.40;93.20
58809;DHT22;44579;51.672;7.834;2024-02-21T01:59:27;9.40;93.20
58809;DHT22;44579;51.672;7.834;2024-02-21T02:02:18;9.40;93.20
58809;DHT22;44579;51.672;7.834;2024-02-21T02:04:49;9.40;93.20
58809;DHT22;44579;51.672;7.834;2024-02-21T02:07:28;9.40;93.20
58809;DHT22;44579;51.672;7.834;2024-02-21T02:10:34;9.40;93.20
58809;DHT22;44579;51.672;7.834;2024-02-21T02:13:25;9.40;93.20
58809;DHT22;44579;51.672;7.834;2024-02-21T02:16:09;9.40;93.20
58809;DHT22;44579;51.672;7.834;2024-02-21T02:18:59;9.40;93.10
58809;DHT22;44579;51.672;7.834;2024-02-21T02:21:52;9.40;93.20
58809;DHT22;44579;51.672;7.834;2024-02-21T02:25:12;9.40;93.20
58809;DHT22;44579;51.672;7.834;2024-02-21T02:31:16;9.40;93.20
58809;DHT22;44579;51.672;7.834;2024-02-21T02:34:25;9.40;93.20
58809;DHT22;44579;51.672;7.834;2024-02-21T02:37:12;9.40;93.20
58809;DHT22;44579;51.672;7.834;2024-02-21T02:40:26;9.40;93.20
58809;DHT22;44579;51.672;7.834;2024-02-21T02:43:20;9.40;93.20
58809;DHT22;44579;51.672;7.834;2024-02-21T02:46:28;9.40;93.10
58809;DHT22;44579;51.672;7.834;2024-02-21T02:49:13;9.40;93.10
58809;DHT22;44579;51.672;7.834;2024-02-21T02:55:31;9.40;93.10
58809;DHT22;44579;51.672;7.834;2024-02-21T02:58:15;9.40;93.10
58809;DHT22;44579;51.672;7.834;2024-02-21T03:00:51;9.30;93.10
58809;DHT22;44579;51.672;7.834;2024-02-21T03:07:32;9.30;93.10
58809;DHT22;44579;51.672;7.834;2024-02-21T03:10:34;9.10;93.00
58809;DHT22;44579;51.672;7.834;2024-02-21T03:13:02;9.10;93.00
58809;DHT22;44579;51.672;7.834;2024-02-21T03:15:42;9.10;93.00
58809;DHT22;44579;51.672;7.834;2024-02-21T03:18:44;9.00;93.00
58809;DHT22;44579;51.672;7.834;2024-02-21T03:21:34;8.90;93.00
58809;DHT22;44579;51.672;7.834;2024-02-21T03:24:26;8.90;93.00
58809;DHT22;44579;51.672;7.834;2024-02-21T03:27:22;8.70;93.00
58809;DHT22;44579;51.672;7.834;2024-02-21T03:30:23;8.70;93.00
58809;DHT22;44579;51.672;7.834;2024-02-21T03:33:15;8.70;93.00
58809;DHT22;44579;51.672;7.834;2024-02-21T03:36:17;8.70;93.00
58809;DHT22;44579;51.672;7.834;2024-02-21T03:39:09;8.70;92.90
58809;DHT22;44579;51.672;7.834;2024-02-21T03:41:56;8.70;92.90
58809;DHT22;44579;51.672;7.834;2024-02-21T03:44:59;8.70;92.90
58809;DHT22;44579;51.672;7.834;2024-02-21T03:48:03;8.70;92.90
58809;DHT22;44579;51.672;7.834;2024-02-21T03:51:27;8.80;93.00
58809;DHT22;44579;51.672;7.834;2024-02-21T03:54:33;8.90;92.90
58809;DHT22;44579;51.672;7.834;2024-02-21T03:57:49;8.90;92.90
58809;DHT22;44579;51.672;7.834;2024-02-21T04:00:28;9.00;92.90
58809;DHT22;44579;51.672;7.834;2024-02-21T04:02:59;9.00;92.90
58809;DHT22;44579;51.672;7.834;2024-02-21T04:05:51;9.00;92.90
58809;DHT22;44579;51.672;7.834;2024-02-21T04:08:59;9.00;92.90
58809;DHT22;44579;51.672;7.834;2024-02-21T04:11:52;9.00;92.90
58809;DHT22;44579;51.672;7.834;2024-02-21T04:14:34;9.10;92.90
58809;DHT22;44579;51.672;7.834;2024-02-21T04:17:13;9.10;92.90
58809;DHT22;44579;51.672;7.834;2024-02-21T04:19:41;9.10;92.90
58809;DHT22;44579;51.672;7.834;2024-02-21T04:22:14;9.10;92.90
58809;DHT22;44579;51.672;7.834;2024-02-21T04:25:02;9.10;92.90
58809;DHT22;44579;51.672;7.834;2024-02-21T04:27:47;9.10;92.90
58809;DHT22;44579;51.672;7.834;2024-02-21T04:30:25;9.10;92.90
58809;DHT22;44579;51.672;7.834;2024-02-21T04:32:56;9.20;92.90
58809;DHT22;44579;51.672;7.834;2024-02-21T04:35:58;9.20;92.90
58809;DHT22;44579;51.672;7.834;2024-02-21T04:38:45;9.20;92.90
58809;DHT22;44579;51.672;7.834;2024-02-21T04:41:26;9.20;92.90
58809;DHT22;44579;51.672;7.834;2024-02-21T04:44:10;9.20;92.90
58809;DHT22;44579;51.672;7.834;2024-02-21T04:50:10;9.20;92.90
58809;DHT22;44579;51.672;7.834;2024-02-21T04:52:47;9.20;93.00
58809;DHT22;44579;51.672;7.834;2024-02-21T04:55:33;9.20;93.00
58809;DHT22;44579;51.672;7.834;2024-02-21T04:58:11;9.30;93.00
58809;DHT22;44579;51.672;7.834;2024-02-21T05:00:55;9.30;93.00
58809;DHT22;44579;51.672;7.834;2024-02-21T05:04:28;9.30;93.00
58809;DHT22;44579;51.672;7.834;2024-02-21T05:07:10;9.30;93.00
58809;DHT22;44579;51.672;7.834;2024-02-21T05:09:54;9.30;93.00
58809;DHT22;44579;51.672;7.834;2024-02-21T05:12:38;9.30;93.00
58809;DHT22;44579;51.672;7.834;2024-02-21T05:15:51;9.30;93.00
58809;DHT22;44579;51.672;7.834;2024-02-21T05:18:24;9.30;93.00
58809;DHT22;44579;51.672;7.834;2024-02-21T05:21:09;9.30;93.00
58809;DHT22;44579;51.672;7.834;2024-02-21T05:23:46;9.30;93.00
58809;DHT22;44579;51.672;7.834;2024-02-21T05:26:47;9.30;93.00
58809;DHT22;44579;51.672;7.834;2024-02-21T05:29:47;9.30;93.00
58809;DHT22;44579;51.672;7.834;2024-02-21T05:32:58;9.30;93.00
58809;DHT22;44579;51.672;7.834;2024-02-21T05:35:44;9.20;93.00
58809;DHT22;44579;51.672;7.834;2024-02-21T05:38:49;9.30;93.00
58809;DHT22;44579;51.672;7.834;2024-02-21T05:41:46;9.30;93.00
58809;DHT22;44579;51.672;7.834;2024-02-21T05:44:18;9.30;93.00
58809;DHT22;44579;51.672;7.834;2024-02-21T05:46:55;9.30;93.00
58809;DHT22;44579;51.672;7.834;2024-02-21T05:49:54;9.30;93.00
58809;DHT22;44579;51.672;7.834;2024-02-21T05:52:38;9.30;93.00
58809;DHT22;44579;51.672;7.834;2024-02-21T05:55:40;9.30;93.00
58809;DHT22;44579;51.672;7.834;2024-02-21T06:01:21;9.30;93.00
58809;DHT22;44579;51.672;7.834;2024-02-21T06:04:00;9.30;93.00
58809;DHT22;44579;51.672;7.834;2024-02-21T06:06:47;9.30;93.00
58809;DHT22;44579;51.672;7.834;2024-02-21T06:09:37;9.30;93.00
58809;DHT22;44579;51.672;7.834;2024-02-21T06:12:26;9.30;93.00
58809;DHT22;44579;51.672;7.834;2024-02-21T06:15:09;9.30;93.00
58809;DHT22;44579;51.672;7.834;2024-02-21T06:17:45;9.30;93.00
58809;DHT22;44579;51.672;7.834;2024-02-21T06:20:38;9.30;93.00
58809;DHT22;44579;51.672;7.834;2024-02-21T06:23:19;9.30;93.00
58809;DHT22;44579;51.672;7.834;2024-02-21T06:26:05;9.20;93.00
58809;DHT22;44579;51.672;7.834;2024-02-21T06:28:43;9.20;93.00
58809;DHT22;44579;51.672;7.834;2024-02-21T06:31:14;9.20;93.00
58809;DHT22;44579;51.672;7.834;2024-02-21T06:34:17;9.30;93.00
58809;DHT22;44579;51.672;7.834;2024-02-21T06:37:35;9.30;93.00
58809;DHT22;44579;51.672;7.834;2024-02-21T06:40:26;9.30;93.00
58809;DHT22;44579;51.672;7.834;2024-02-21T06:43:54;9.20;93.00
58809;DHT22;44579;51.672;7.834;2024-02-21T06:46:38;9.20;93.00
58809;DHT22;44579;51.672;7.834;2024-02-21T06:49:10;9.30;93.00
58809;DHT22;44579;51.672;7.834;2024-02-21T06:58:15;9.20;93.00
58809;DHT22;44579;51.672;7.834;2024-02-21T07:01:10;9.20;93.10
58809;DHT22;44579;51.672;7.834;2024-02-21T07:03:48;9.30;93.10
58809;DHT22;44579;51.672;7.834;2024-02-21T07:06:34;9.30;93.10
58809;DHT22;44579;51.672;7.834;2024-02-21T07:12:43;9.40;93.10
58809;DHT22;44579;51.672;7.834;2024-02-21T07:15:38;9.30;93.10
58809;DHT22;44579;51.672;7.834;2024-02-21T07:18:12;9.40;93.10
58809;DHT22;44579;51.672;7.834;2024-02-21T07:20:46;9.40;93.10
58809;DHT22;44579;51.672;7.834;2024-02-21T07:23:41;9.40;93.10
58809;DHT22;44579;51.672;7.834;2024-02-21T07:26:50;9.40;93.10
58809;DHT22;44579;51.672;7.834;2024-02-21T07:29:24;9.50;93.10
58809;DHT22;44579;51.672;7.834;2024-02-21T07:32:14;9.50;93.20
58809;DHT22;44579;51.672;7.834;2024-02-21T07:34:59;9.50;93.20
58809;DHT22;44579;51.672;7.834;2024-02-21T07:37:58;9.60;93.20
58809;DHT22;44579;51.672;7.834;2024-02-21T07:40:52;9.60;93.20
58809;DHT22;44579;51.672;7.834;2024-02-21T07:47:10;9.60;93.20
58809;DHT22;44579;51.672;7.834;2024-02-21T07:50:27;9.60;93.20
58809;DHT22;44579;51.672;7.834;2024-02-21T07:53:21;9.60;93.20
58809;DHT22;44579;51.672;7.834;2024-02-21T07:56:08;9.70;93.20
58809;DHT22;44579;51.672;7.834;2024-02-21T08:02:55;9.70;93.30
58809;DHT22;44579;51.672;7.834;2024-02-21T08:05:44;9.70;93.30
58809;DHT22;44579;51.672;7.834;2024-02-21T08:12:20;9.80;93.40
58809;DHT22;44579;51.672;7.834;2024-02-21T08:18:06;9.90;93.40
58809;DHT22;44579;51.672;7.834;2024-02-21T08:21:17;9.90;93.40
58809;DHT22;44579;51.672;7.834;2024-02-21T08:23:59;10.00;93.40
58809;DHT22;44579;51.672;7.834;2024-02-21T08:26:43;10.00;93.60
58809;DHT22;44579;51.672;7.834;2024-02-21T08:29:21;10.00;93.40
58809;DHT22;44579;51.672;7.834;2024-02-21T08:32:23;10.00;93.50
58809;DHT22;44579;51.672;7.834;2024-02-21T08:38:06;10.00;93.50
58809;DHT22;44579;51.672;7.834;2024-02-21T08:40:33;10.10;93.60
58809;DHT22;44579;51.672;7.834;2024-02-21T08:43:37;10.00;93.50
58809;DHT22;44579;51.672;7.834;2024-02-21T08:46:07;10.10;93.60
58809;DHT22;44579;51.672;7.834;2024-02-21T08:49:09;10.10;93.60
58809;DHT22;44579;51.672;7.834;2024-02-21T08:52:24;10.20;93.60
58809;DHT22;44579;51.672;7.834;2024-02-21T08:55:04;10.20;93.60
58809;DHT22;44579;51.672;7.834;2024-02-21T08:58:10;10.20;93.60
58809;DHT22;44579;51.672;7.834;2024-02-21T09:01:22;10.30;93.70
58809;DHT22;44579;51.672;7.834;2024-02-21T09:04:28;10.30;93.60
58809;DHT22;44579;51.672;7.834;2024-02-21T09:07:14;10.40;93.60
58809;DHT22;44579;51.672;7.834;2024-02-21T09:09:51;10.40;93.60
58809;DHT22;44579;51.672;7.834;2024-02-21T09:15:54;10.50;93.60
58809;DHT22;44579;51.672;7.834;2024-02-21T09:19:04;10.50;93.70
58809;DHT22;44579;51.672;7.834;2024-02-21T09:21:39;10.60;93.70
58809;DHT22;44579;51.672;7.834;2024-02-21T09:27:36;10.60;93.70
58809;DHT22;44579;51.672;7.834;2024-02-21T09:30:34;10.70;93.80
58809;DHT22;44579;51.672;7.834;2024-02-21T09:33:16;10.70;93.80
58809;DHT22;44579;51.672;7.834;2024-02-21T09:36:00;10.70;93.90
58809;DHT22;44579;51.672;7.834;2024-02-21T09:38:39;10.70;93.90
58809;DHT22;44579;51.672;7.834;2024-02-21T09:41:27;10.70;93.90
58809;DHT22;44579;51.672;7.834;2024-02-21T09:44:19;10.80;93.90
58809;DHT22;44579;51.672;7.834;2024-02-21T09:47:46;10.70;93.80
58809;DHT22;44579;51.672;7.834;2024-02-21T09:54:35;10.70;93.80
58809;DHT22;44579;51.672;7.834;2024-02-21T09:57:22;10.70;93.90
58809;DHT22;44579;51.672;7.834;2024-02-21T10:00:20;10.80;93.90
58809;DHT22;44579;51.672;7.834;2024-02-21T10:03:11;10.80;93.90
58809;DHT22;44579;51.672;7.834;2024-02-21T10:15:25;10.70;93.90
58809;DHT22;44579;51.672;7.834;2024-02-21T10:18:17;10.70;93.90
58809;DHT22;44579;51.672;7.834;2024-02-21T10:21:04;10.70;93.90
58809;DHT22;44579;51.672;7.834;2024-02-21T10:24:12;10.70;93.90
58809;DHT22;44579;51.672;7.834;2024-02-21T10:27:23;10.60;93.90
58809;DHT22;44579;51.672;7.834;2024-02-21T10:33:23;10.50;94.00
58809;DHT22;44579;51.672;7.834;2024-02-21T10:36:10;10.50;94.00
58809;DHT22;44579;51.672;7.834;2024-02-21T10:39:03;10.50;93.90
58809;DHT22;44579;51.672;7.834;2024-02-21T10:48:28;10.50;93.90
58809;DHT22;44579;51.672;7.834;2024-02-21T10:51:35;10.40;93.80
58809;DHT22;44579;51.672;7.834;2024-02-21T10:54:32;10.40;93.70
58809;DHT22;44579;51.672;7.834;2024-02-21T10:57:20;10.30;93.70
58809;DHT22;44579;51.672;7.834;2024-02-21T11:00:05;10.30;93.70
58809;DHT22;44579;51.672;7.834;2024-02-21T11:03:15;10.30;93.70
58809;DHT22;44579;51.672;7.834;2024-02-21T11:06:24;10.30;93.70
58809;DHT22;44579;51.672;7.834;2024-02-21T11:09:08;10.30;93.60
58809;DHT22;44579;51.672;7.834;2024-02-21T11:11:52;10.30;93.60
58809;DHT22;44579;51.672;7.834;2024-02-21T11:14:45;10.20;93.60
58809;DHT22;44579;51.672;7.834;2024-02-21T11:17:54;10.20;93.70
58809;DHT22;44579;51.672;7.834;2024-02-21T11:20:49;10.20;93.60
58809;DHT22;44579;51.672;7.834;2024-02-21T11:24:32;10.20;93.60
58809;DHT22;44579;51.672;7.834;2024-02-21T11:27:58;10.20;93.60
58809;DHT22;44579;51.672;7.834;2024-02-21T11:34:21;10.30;93.50
58809;DHT22;44579;51.672;7.834;2024-02-21T11:37:24;10.30;93.50
58809;DHT22;44579;51.672;7.834;2024-02-21T11:40:09;10.30;93.40
58809;DHT22;44579;51.672;7.834;2024-02-21T11:46:10;10.30;93.50
58809;DHT22;44579;51.672;7.834;2024-02-21T11:48:42;10.30;93.50
58809;DHT22;44579;51.672;7.834;2024-02-21T11:51:24;10.40;93.50
58809;DHT22;44579;51.672;7.834;2024-02-21T11:54:28;10.50;93.60
58809;DHT22;44579;51.672;7.834;2024-02-21T11:57:02;10.70;93.60
58809;DHT22;44579;51.672;7.834;2024-02-21T11:59:55;10.80;93.60
58809;DHT22;44579;51.672;7.834;2024-02-21T12:02:31;10.90;93.60
58809;DHT22;44579;51.672;7.834;2024-02-21T12:05:27;11.00;93.60
58809;DHT22;44579;51.672;7.834;2024-02-21T12:08:20;11.00;93.60
58809;DHT22;44579;51.672;7.834;2024-02-21T12:15:21;11.10;93.80
58809;DHT22;44579;51.672;7.834;2024-02-21T12:18:09;11.10;93.80
58809;DHT22;44579;51.672;7.834;2024-02-21T12:21:19;11.10;93.80
58809;DHT22;44579;51.672;7.834;2024-02-21T12:28:00;11.10;93.90
58809;DHT22;44579;51.672;7.834;2024-02-21T12:30:39;11.10;93.90
58809;DHT22;44579;51.672;7.834;2024-02-21T12:33:24;11.00;93.90
58809;DHT22;44579;51.672;7.834;2024-02-21T12:36:13;11.10;94.00
58809;DHT22;44579;51.672;7.834;2024-02-21T12:42:14;11.20;93.90
58809;DHT22;44579;51.672;7.834;2024-02-21T12:48:32;11.30;93.90
58809;DHT22;44579;51.672;7.834;2024-02-21T12:52:17;11.30;93.90
58809;DHT22;44579;51.672;7.834;2024-02-21T12:55:40;11.40;94.00
58809;DHT22;44579;51.672;7.834;2024-02-21T12:58:41;11.40;94.00
58809;DHT22;44579;51.672;7.834;2024-02-21T13:01:27;11.50;94.10
58809;DHT22;44579;51.672;7.834;2024-02-21T13:04:26;11.50;94.10
58809;DHT22;44579;51.672;7.834;2024-02-21T13:11:22;11.60;94.10
58809;DHT22;44579;51.672;7.834;2024-02-21T13:14:55;11.60;94.10
58809;DHT22;44579;51.672;7.834;2024-02-21T13:18:38;11.60;94.10
58809;DHT22;44579;51.672;7.834;2024-02-21T13:21:25;11.70;94.10
58809;DHT22;44579;51.672;7.834;2024-02-21T13:24:19;11.70;94.10
58809;DHT22;44579;51.672;7.834;2024-02-21T13:26:56;11.70;94.10
58809;DHT22;44579;51.672;7.834;2024-02-21T13:29:48;11.80;94.10
58809;DHT22;44579;51.672;7.834;2024-02-21T13:33:01;11.80;94.10
58809;DHT22;44579;51.672;7.834;2024-02-21T13:36:24;11.80;94.10
58809;DHT22;44579;51.672;7.834;2024-02-21T13:38:53;11.80;94.10
58809;DHT22;44579;51.672;7.834;2024-02-21T13:42:13;11.80;94.10
58809;DHT22;44579;51.672;7.834;2024-02-21T13:44:51;11.80;94.10
58809;DHT22;44579;51.672;7.834;2024-02-21T13:47:38;11.90;94.10
58809;DHT22;44579;51.672;7.834;2024-02-21T13:50:19;11.90;94.10
58809;DHT22;44579;51.672;7.834;2024-02-21T13:52:56;11.90;94.00
58809;DHT22;44579;51.672;7.834;2024-02-21T13:55:45;11.90;94.00
58809;DHT22;44579;51.672;7.834;2024-02-21T13:59:09;12.00;94.00
58809;DHT22;44579;51.672;7.834;2024-02-21T14:01:48;12.00;94.00
58809;DHT22;44579;51.672;7.834;2024-02-21T14:04:52;12.00;94.00
58809;DHT22;44579;51.672;7.834;2024-02-21T14:07:57;12.10;94.00
58809;DHT22;44579;51.672;7.834;2024-02-21T14:10:55;12.10;94.00
58809;DHT22;44579;51.672;7.834;2024-02-21T14:16:58;12.10;94.00
58809;DHT22;44579;51.672;7.834;2024-02-21T14:19:44;12.10;94.00
58809;DHT22;44579;51.672;7.834;2024-02-21T14:22:51;12.10;94.00
58809;DHT22;44579;51.672;7.834;2024-02-21T14:25:36;12.10;93.90
58809;DHT22;44579;51.672;7.834;2024-02-21T14:28:33;12.10;93.90
58809;DHT22;44579;51.672;7.834;2024-02-21T14:31:22;12.10;93.90
58809;DHT22;44579;51.672;7.834;2024-02-21T14:34:37;12.10;93.90
58809;DHT22;44579;51.672;7.834;2024-02-21T14:37:24;12.10;93.90
58809;DHT22;44579;51.672;7.834;2024-02-21T14:40:09;12.10;93.80
58809;DHT22;44579;51.672;7.834;2024-02-21T14:43:06;12.10;93.90
58809;DHT22;44579;51.672;7.834;2024-02-21T14:45:58;12.00;93.90
58809;DHT22;44579;51.672;7.834;2024-02-21T14:48:56;12.00;93.80
58809;DHT22;44579;51.672;7.834;2024-02-21T14:52:22;12.00;93.90
58809;DHT22;44579;51.672;7.834;2024-02-21T14:55:31;11.90;93.80
58809;DHT22;44579;51.672;7.834;2024-02-21T14:58:28;11.90;93.80
58809;DHT22;44579;51.672;7.834;2024-02-21T15:01:39;12.00;93.80
58809;DHT22;44579;51.672;7.834;2024-02-21T15:04:18;12.00;93.80
58809;DHT22;44579;51.672;7.834;2024-02-21T15:07:14;12.00;93.70
58809;DHT22;44579;51.672;7.834;2024-02-21T15:09:59;11.90;93.70
58809;DHT22;44579;51.672;7.834;2024-02-21T15:12:49;11.90;93.70
58809;DHT22;44579;51.672;7.834;2024-02-21T15:15:31;11.90;93.70
58809;DHT22;44579;51.672;7.834;2024-02-21T15:17:58;11.90;93.60
58809;DHT22;44579;51.672;7.834;2024-02-21T15:20:25;11.80;93.60
58809;DHT22;44579;51.672;7.834;2024-02-21T15:22:52;11.80;93.60
58809;DHT22;44579;51.672;7.834;2024-02-21T15:25:49;11.80;93.60
58809;DHT22;44579;51.672;7.834;2024-02-21T15:29:07;11.70;93.60
58809;DHT22;44579;51.672;7.834;2024-02-21T15:31:37;11.70;93.60
58809;DHT22;44579;51.672;7.834;2024-02-21T15:34:31;11.70;93.50
58809;DHT22;44579;51.672;7.834;2024-02-21T15:37:44;11.70;93.50
58809;DHT22;44579;51.672;7.834;2024-02-21T15:40:41;11.60;93.50
58809;DHT22;44579;51.672;7.834;2024-02-21T15:43:14;11.60;93.50
58809;DHT22;44579;51.672;7.834;2024-02-21T15:45:53;11.50;93.60
58809;DHT22;44579;51.672;7.834;2024-02-21T15:48:56;11.50;93.50
58809;DHT22;44579;51.672;7.834;2024-02-21T15:52:07;11.50;93.40
58809;DHT22;44579;51.672;7.834;2024-02-21T15:54:58;11.50;93.40
58809;DHT22;44579;51.672;7.834;2024-02-21T15:57:46;11.40;93.30
58809;DHT22;44579;51.672;7.834;2024-02-21T16:00:20;11.40;93.30
58809;DHT22;44579;51.672;7.834;2024-02-21T16:03:09;11.30;93.30
58809;DHT22;44579;51.672;7.834;2024-02-21T16:06:42;11.30;93.20
58809;DHT22;44579;51.672;7.834;2024-02-21T16:09:24;11.30;93.60
58809;DHT22;44579;51.672;7.834;2024-02-21T16:15:14;11.20;93.10
58809;DHT22;44579;51.672;7.834;2024-02-21T16:21:07;11.20;93.00
58809;DHT22;44579;51.672;7.834;2024-02-21T16:24:03;11.20;93.00
58809;DHT22;44579;51.672;7.834;2024-02-21T16:26:44;11.20;92.90
58809;DHT22;44579;51.672;7.834;2024-02-21T16:29:12;11.10;92.90
58809;DHT22;44579;51.672;7.834;2024-02-21T16:31:59;11.10;92.80
58809;DHT22;44579;51.672;7.834;2024-02-21T16:34:54;11.10;92.90
58809;DHT22;44579;51.672;7.834;2024-02-21T16:37:27;11.10;92.80
58809;DHT22;44579;51.672;7.834;2024-02-21T16:40:20;11.00;92.80
58809;DHT22;44579;51.672;7.834;2024-02-21T16:43:38;11.00;92.80
58809;DHT22;44579;51.672;7.834;2024-02-21T16:46:34;11.00;92.70
58809;DHT22;44579;51.672;7.834;2024-02-21T16:49:40;11.00;92.70
58809;DHT22;44579;51.672;7.834;2024-02-21T16:52:43;11.00;92.60
58809;DHT22;44579;51.672;7.834;2024-02-21T16:55:45;11.00;92.60
58809;DHT22;44579;51.672;7.834;2024-02-21T16:58:32;10.90;92.50
58809;DHT22;44579;51.672;7.834;2024-02-21T17:01:15;10.90;92.50
58809;DHT22;44579;51.672;7.834;2024-02-21T17:04:09;11.00;92.60
58809;DHT22;44579;51.672;7.834;2024-02-21T17:07:09;11.00;92.50
58809;DHT22;44579;51.672;7.834;2024-02-21T17:10:16;10.90;92.50
58809;DHT22;44579;51.672;7.834;2024-02-21T17:13:04;10.90;92.40
58809;DHT22;44579;51.672;7.834;2024-02-21T17:16:12;10.90;92.40
58809;DHT22;44579;51.672;7.834;2024-02-21T17:19:00;10.90;92.80
58809;DHT22;44579;51.672;7.834;2024-02-21T17:21:42;10.90;92.40
58809;DHT22;44579;51.672;7.834;2024-02-21T17:24:21;10.90;92.40
58809;DHT22;44579;51.672;7.834;2024-02-21T17:27:26;10.90;92.30
58809;DHT22;44579;51.672;7.834;2024-02-21T17:30:35;10.90;92.30
58809;DHT22;44579;51.672;7.834;2024-02-21T17:36:55;10.80;92.20
58809;DHT22;44579;51.672;7.834;2024-02-21T17:39:46;10.90;92.20
58809;DHT22;44579;51.672;7.834;2024-02-21T17:42:40;10.90;92.10
58809;DHT22;44579;51.672;7.834;2024-02-21T17:45:12;10.90;92.10
58809;DHT22;44579;51.672;7.834;2024-02-21T17:50:53;10.90;92.00
58809;DHT22;44579;51.672;7.834;2024-02-21T17:53:46;10.90;92.00
58809;DHT22;44579;51.672;7.834;2024-02-21T17:56:53;10.90;92.00
58809;DHT22;44579;51.672;7.834;2024-02-21T17:59:52;10.90;92.00
58809;DHT22;44579;51.672;7.834;2024-02-21T18:02:54;10.90;92.00
58809;DHT22;44579;51.672;7.834;2024-02-21T18:05:49;10.90;92.00
58809;DHT22;44579;51.672;7.834;2024-02-21T18:08:43;10.80;92.00
58809;DHT22;44579;51.672;7.834;2024-02-21T18:11:42;10.80;92.00
58809;DHT22;44579;51.672;7.834;2024-02-21T18:17:18;10.70;92.00
58809;DHT22;44579;51.672;7.834;2024-02-21T18:20:15;10.70;92.00
58809;DHT22;44579;51.672;7.834;2024-02-21T18:23:17;10.70;92.00
58809;DHT22;44579;51.672;7.834;2024-02-21T18:26:18;10.70;92.00
58809;DHT22;44579;51.672;7.834;2024-02-21T18:32:17;10.70;92.00
58809;DHT22;44579;51.672;7.834;2024-02-21T18:35:19;10.70;92.00
58809;DHT22;44579;51.672;7.834;2024-02-21T18:38:04;10.60;92.20
58809;DHT22;44579;51.672;7.834;2024-02-21T18:41:06;10.60;92.00
58809;DHT22;44579;51.672;7.834;2024-02-21T18:44:03;10.50;92.00
58809;DHT22;44579;51.672;7.834;2024-02-21T18:46:45;10.50;92.00
58809;DHT22;44579;51.672;7.834;2024-02-21T18:49:27;10.50;92.10
58809;DHT22;44579;51.672;7.834;2024-02-21T18:55:07;10.40;92.00
58809;DHT22;44579;51.672;7.834;2024-02-21T18:58:01;10.40;91.90
58809;DHT22;44579;51.672;7.834;2024-02-21T19:00:43;10.30;91.90
58809;DHT22;44579;51.672;7.834;2024-02-21T19:03:59;10.30;91.90
58809;DHT22;44579;51.672;7.834;2024-02-21T19:06:48;10.30;92.00
58809;DHT22;44579;51.672;7.834;2024-02-21T19:09:43;10.30;91.90
58809;DHT22;44579;51.672;7.834;2024-02-21T19:16:05;10.20;91.90
58809;DHT22;44579;51.672;7.834;2024-02-21T19:18:55;10.10;91.90
58809;DHT22;44579;51.672;7.834;2024-02-21T19:21:30;10.20;91.90
58809;DHT22;44579;51.672;7.834;2024-02-21T19:24:21;10.10;91.90
58809;DHT22;44579;51.672;7.834;2024-02-21T19:26:58;10.10;91.80
58809;DHT22;44579;51.672;7.834;2024-02-21T19:29:51;10.00;92.10
58809;DHT22;44579;51.672;7.834;2024-02-21T19:32:48;10.00;91.80
58809;DHT22;44579;51.672;7.834;2024-02-21T19:35:23;10.00;91.70
58809;DHT22;44579;51.672;7.834;2024-02-21T19:38:10;10.00;91.70
58809;DHT22;44579;51.672;7.834;2024-02-21T19:40:54;9.90;91.70
58809;DHT22;44579;51.672;7.834;2024-02-21T19:43:28;9.90;91.70
58809;DHT22;44579;51.672;7.834;2024-02-21T19:46:15;9.90;91.70
58809;DHT22;44579;51.672;7.834;2024-02-21T19:52:38;9.90;91.60
58809;DHT22;44579;51.672;7.834;2024-02-21T19:55:26;9.80;91.60
58809;DHT22;44579;51.672;7.834;2024-02-21T19:58:18;9.80;91.60
58809;DHT22;44579;51.672;7.834;2024-02-21T20:00:53;9.90;92.00
58809;DHT22;44579;51.672;7.834;2024-02-21T20:03:39;9.90;91.60
58809;DHT22;44579;51.672;7.834;2024-02-21T20:06:15;9.80;91.50
58809;DHT22;44579;51.672;7.834;2024-02-21T20:08:51;9.80;91.50
58809;DHT22;44579;51.672;7.834;2024-02-21T20:11:30;9.80;91.50
58809;DHT22;44579;51.672;7.834;2024-02-21T20:14:13;9.70;91.50
58809;DHT22;44579;51.672;7.834;2024-02-21T20:17:08;9.70;91.50
58809;DHT22;44579;51.672;7.834;2024-02-21T20:19:42;9.70;91.50
58809;DHT22;44579;51.672;7.834;2024-02-21T20:22:20;9.70;91.40
58809;DHT22;44579;51.672;7.834;2024-02-21T20:25:05;9.70;91.40
58809;DHT22;44579;51.672;7.834;2024-02-21T20:27:51;9.70;91.30
58809;DHT22;44579;51.672;7.834;2024-02-21T20:30:51;9.80;91.30
58809;DHT22;44579;51.672;7.834;2024-02-21T20:33:25;9.80;91.30
58809;DHT22;44579;51.672;7.834;2024-02-21T20:36:32;9.90;91.20
58809;DHT22;44579;51.672;7.834;2024-02-21T20:39:24;9.90;91.10
58809;DHT22;44579;51.672;7.834;2024-02-21T20:42:02;9.90;91.00
58809;DHT22;44579;51.672;7.834;2024-02-21T20:44:48;9.90;91.00
58809;DHT22;44579;51.672;7.834;2024-02-21T20:47:15;9.90;91.00